Time;durP1;ratioP1;P1;durP2;ratioP2;P2;SDS_P1;SDS_P2;PMS_P1;PMS_P2;Temp;Humidity;BMP_temperature;BMP_pressure;BME280_temperature;BME280_humidity;BME280_pressure;Samples;Min_cycle;Max_cycle;Signal;HPM_P1;HPM_P2
2022/11/12 00:01:06;;;;;;;11.53;9.80;;;10.50;99.90;;;;;;4968163;28;20305;-79
2022/11/12 00:04:08;;;;;;;12.37;9.73;;;10.50;99.90;;;;;;4971004;28;20172;-80
2022/11/12 00:06:45;;;;;;;11.13;9.87;;;10.70;99.90;;;;;;4968826;28;20220;-78
2022/11/12 00:09:14;;;;;;;13.00;9.27;;;10.90;99.20;;;;;;4966178;29;20232;-77
2022/11/12 00:15:03;;;;;;;11.43;9.50;;;11.00;98.00;;;;;;4967493;29;20213;-80
2022/11/12 00:17:30;;;;;;;12.63;10.57;;;11.00;96.80;;;;;;4984366;28;20208;-79
2022/11/12 00:19:57;;;;;;;11.00;8.80;;;10.90;96.20;;;;;;4965671;29;20183;-79
2022/11/12 00:22:23;;;;;;;10.57;9.47;;;10.60;97.00;;;;;;4961492;29;20236;-79
2022/11/12 00:24:49;;;;;;;10.97;9.53;;;10.70;98.10;;;;;;4964762;29;20172;-78
2022/11/12 00:30:40;;;;;;;13.20;9.17;;;10.80;97.70;;;;;;4963955;29;20165;-80
2022/11/12 00:33:20;;;;;;;10.67;9.13;;;10.90;96.70;;;;;;4963426;28;20184;-78
2022/11/12 00:36:08;;;;;;;12.47;10.43;;;10.90;95.80;;;;;;4964755;29;20239;-78
2022/11/12 00:38:50;;;;;;;12.57;10.50;;;11.00;93.70;;;;;;4961221;28;20161;-78
2022/11/12 00:41:32;;;;;;;12.73;11.03;;;11.20;91.60;;;;;;4959891;28;20180;-79
2022/11/12 00:43:57;;;;;;;12.17;10.53;;;11.20;90.10;;;;;;4963180;29;20175;-79
2022/11/12 00:46:35;;;;;;;13.30;10.50;;;11.20;89.50;;;;;;4959620;29;20184;-79
2022/11/12 00:49:01;;;;;;;13.20;10.53;;;11.20;90.00;;;;;;4960466;29;20593;-79
2022/11/12 00:51:29;;;;;;;12.17;10.63;;;10.90;92.10;;;;;;4962046;29;20176;-80
2022/11/12 00:53:57;;;;;;;16.40;13.40;;;10.80;93.70;;;;;;4963872;28;20236;-80
2022/11/12 00:56:24;;;;;;;14.47;11.23;;;10.70;95.40;;;;;;4969303;29;20184;-78
2022/11/12 00:58:50;;;;;;;15.17;11.30;;;10.90;95.70;;;;;;4965959;28;20196;-79
2022/11/12 01:01:17;;;;;;;11.87;10.67;;;10.90;95.50;;;;;;4963985;29;20187;-78
2022/11/12 01:07:05;;;;;;;13.13;10.20;;;11.00;94.70;;;;;;4967566;29;20177;-78
2022/11/12 01:12:53;;;;;;;12.87;10.63;;;11.20;92.00;;;;;;4962346;29;20168;-78
2022/11/12 01:15:33;;;;;;;12.03;10.63;;;11.30;88.10;;;;;;4976935;28;20225;-78
2022/11/12 01:18:04;;;;;;;12.77;9.53;;;11.40;86.20;;;;;;4961740;29;20223;-76
2022/11/12 01:20:38;;;;;;;12.47;10.07;;;11.40;82.40;;;;;;4964145;29;20176;-78
2022/11/12 01:23:36;;;;;;;10.47;9.37;;;11.40;82.20;;;;;;4962991;28;20170;-78
2022/11/12 01:26:22;;;;;;;12.57;9.73;;;11.40;83.50;;;;;;4961067;29;20188;-79
2022/11/12 01:28:55;;;;;;;11.77;10.03;;;11.30;84.70;;;;;;4962065;28;20183;-79
2022/11/12 01:32:09;;;;;;;11.10;9.47;;;11.30;86.20;;;;;;4960291;29;20672;-80
2022/11/12 01:34:57;;;;;;;10.97;9.17;;;11.20;87.40;;;;;;4959758;28;20209;-79
2022/11/12 01:37:46;;;;;;;12.77;9.60;;;11.20;89.00;;;;;;4960390;28;20183;-79
2022/11/12 01:44:08;;;;;;;12.10;9.73;;;11.20;83.70;;;;;;4962378;29;20632;-80
2022/11/12 01:47:13;;;;;;;12.23;9.30;;;11.30;79.90;;;;;;4966243;29;20263;-80
2022/11/12 01:50:21;;;;;;;12.27;10.17;;;11.30;77.30;;;;;;4962369;28;20180;-79
2022/11/12 01:52:57;;;;;;;11.73;9.10;;;11.30;75.40;;;;;;4983971;28;20234;-79
2022/11/12 01:55:28;;;;;;;11.27;8.97;;;11.20;75.60;;;;;;4980674;28;20226;-79
2022/11/12 01:58:17;;;;;;;12.17;8.70;;;11.20;76.70;;;;;;4961057;28;20247;-77
2022/11/12 02:00:54;;;;;;;9.57;8.50;;;11.10;79.50;;;;;;4965104;28;20188;-77
2022/11/12 02:03:25;;;;;;;12.40;9.00;;;11.00;82.40;;;;;;4968266;28;20172;-78
2022/11/12 02:06:01;;;;;;;9.27;8.07;;;11.10;83.60;;;;;;4966529;28;20185;-78
2022/11/12 02:08:28;;;;;;;8.70;7.80;;;11.10;84.20;;;;;;4980723;28;20172;-80
2022/11/12 02:10:58;;;;;;;10.43;8.03;;;11.00;84.80;;;;;;4965833;28;20177;-79
2022/11/12 02:14:11;;;;;;;12.20;7.93;;;11.10;85.00;;;;;;4950224;29;20210;-80
2022/11/12 02:16:44;;;;;;;11.00;8.33;;;11.10;84.70;;;;;;4966661;28;20162;-78
2022/11/12 02:19:15;;;;;;;10.23;8.83;;;11.00;82.10;;;;;;4967445;28;20164;-79
2022/11/12 02:21:44;;;;;;;9.63;7.83;;;11.10;80.00;;;;;;4965765;29;20654;-83
2022/11/12 02:24:13;;;;;;;11.40;8.83;;;10.90;79.20;;;;;;4963048;29;20180;-78
2022/11/12 02:27:10;;;;;;;12.50;8.43;;;10.70;81.70;;;;;;4963974;29;20163;-78
2022/11/12 02:29:45;;;;;;;9.97;8.47;;;10.70;85.50;;;;;;4966499;28;20161;-78
2022/11/12 02:32:20;;;;;;;9.97;8.30;;;10.80;87.10;;;;;;4968783;28;20164;-80
2022/11/12 02:34:53;;;;;;;10.40;8.87;;;11.00;83.80;;;;;;4966906;29;20263;-79
2022/11/12 02:37:20;;;;;;;11.27;9.00;;;11.10;82.30;;;;;;4980714;28;20184;-78
2022/11/12 02:40:23;;;;;;;9.40;8.40;;;11.00;81.30;;;;;;4965200;29;20169;-77
2022/11/12 02:46:11;;;;;;;10.33;7.97;;;11.00;78.80;;;;;;4964699;29;20583;-79
2022/11/12 02:49:27;;;;;;;10.10;7.73;;;11.00;79.70;;;;;;4964804;29;20170;-81
2022/11/12 02:51:52;;;;;;;8.60;7.30;;;11.10;78.80;;;;;;4963961;28;20219;-80
2022/11/12 02:54:21;;;;;;;10.47;8.47;;;11.10;76.90;;;;;;4966879;28;20220;-77
2022/11/12 02:56:50;;;;;;;9.87;8.17;;;11.10;76.40;;;;;;4971478;29;20148;-77
2022/11/12 02:59:18;;;;;;;11.33;8.80;;;11.00;77.40;;;;;;4968726;28;20661;-85
2022/11/12 03:01:44;;;;;;;10.20;8.57;;;10.90;79.40;;;;;;4966937;29;20172;-90
2022/11/12 03:04:18;;;;;;;12.93;9.30;;;10.80;81.30;;;;;;4965242;29;20183;-77
2022/11/12 03:06:46;;;;;;;10.97;8.77;;;10.70;84.60;;;;;;4963181;29;20208;-79
2022/11/12 03:09:13;;;;;;;10.57;8.40;;;10.70;87.00;;;;;;4958761;29;20168;-78
2022/11/12 03:11:39;;;;;;;12.53;9.93;;;10.70;87.60;;;;;;4958158;29;20168;-84
2022/11/12 03:14:04;;;;;;;11.03;9.43;;;10.60;86.80;;;;;;4959494;29;20253;-78
2022/11/12 03:16:31;;;;;;;14.17;9.97;;;10.60;87.20;;;;;;4960476;28;20177;-83
2022/11/12 03:18:57;;;;;;;12.37;9.97;;;10.50;89.00;;;;;;4960282;29;20186;-80
2022/11/12 03:21:23;;;;;;;11.37;9.47;;;10.40;91.20;;;;;;4961384;29;20168;-79
2022/11/12 03:24:00;;;;;;;12.73;10.20;;;10.40;91.90;;;;;;4959576;29;20747;-80
2022/11/12 03:26:28;;;;;;;12.83;9.63;;;10.20;93.10;;;;;;4959883;28;20169;-85
2022/11/12 03:28:56;;;;;;;10.43;9.30;;;10.30;94.90;;;;;;4960428;29;20259;-82
2022/11/12 03:31:25;;;;;;;12.50;10.20;;;10.40;94.90;;;;;;4959896;28;20540;-85
2022/11/12 03:33:52;;;;;;;10.80;9.70;;;10.50;94.40;;;;;;4958028;29;20343;-79
2022/11/12 03:36:17;;;;;;;13.73;9.53;;;10.40;94.10;;;;;;4959375;29;20637;-77
2022/11/12 03:38:44;;;;;;;11.90;9.20;;;10.40;94.50;;;;;;4958037;29;20202;-88
2022/11/12 03:41:10;;;;;;;10.10;9.10;;;10.50;94.90;;;;;;4973938;28;20180;-78
2022/11/12 03:43:36;;;;;;;10.53;9.00;;;10.30;95.20;;;;;;4959760;28;20177;-79
2022/11/12 03:46:02;;;;;;;12.57;9.13;;;10.30;95.10;;;;;;4960776;29;20689;-79
2022/11/12 03:48:28;;;;;;;12.60;8.43;;;10.20;96.10;;;;;;4976359;28;20279;-78
2022/11/12 03:50:58;;;;;;;13.00;9.87;;;10.00;98.00;;;;;;4961469;28;20219;-91
2022/11/12 03:53:29;;;;;;;11.63;9.60;;;9.80;98.80;;;;;;4958793;28;20168;-79
2022/11/12 03:55:56;;;;;;;11.67;9.43;;;9.70;99.90;;;;;;4957558;28;20239;-81
2022/11/12 03:58:23;;;;;;;12.37;8.67;;;9.60;99.90;;;;;;4957850;29;20196;-83
2022/11/12 04:00:49;;;;;;;10.77;8.43;;;9.60;99.90;;;;;;4957493;28;20199;-79
2022/11/12 04:03:15;;;;;;;9.90;8.43;;;9.40;99.90;;;;;;4956637;29;20508;-79
2022/11/12 04:08:36;;;;;;;11.97;8.27;;;9.50;99.90;;;;;;4959477;29;20567;-80
2022/11/12 04:11:11;;;;;;;9.17;7.67;;;9.40;99.90;;;;;;4958649;29;20509;-78
2022/11/12 04:13:41;;;;;;;12.63;9.37;;;9.30;99.90;;;;;;4958490;28;20291;-79
2022/11/12 04:21:54;;;;;;;11.07;8.47;;;9.40;99.90;;;;;;4959975;29;20268;-79
2022/11/12 04:27:44;;;;;;;10.53;8.70;;;9.40;99.90;;;;;;4963326;28;20223;-79
2022/11/12 04:30:17;;;;;;;9.90;8.70;;;9.40;99.90;;;;;;4969016;29;20195;-79
2022/11/12 04:32:53;;;;;;;9.10;8.03;;;9.30;99.90;;;;;;4963182;28;20176;-78
2022/11/12 04:35:22;;;;;;;12.60;8.63;;;9.20;99.90;;;;;;4962831;28;20258;-79
2022/11/12 04:37:51;;;;;;;10.33;9.23;;;9.10;99.90;;;;;;4961901;28;20524;-80
2022/11/12 04:46:57;;;;;;;10.10;8.37;;;9.00;99.90;;;;;;4961829;29;20171;-79
2022/11/12 04:49:27;;;;;;;13.90;12.43;;;9.00;99.90;;;;;;4976111;28;20618;-79
2022/11/12 04:52:48;;;;;;;15.67;14.27;;;9.00;99.90;;;;;;4976268;28;20207;-79
2022/11/12 04:59:20;;;;;;;11.13;9.97;;;9.00;99.90;;;;;;4977210;28;20188;-78
2022/11/12 05:01:59;;;;;;;10.30;8.97;;;8.90;99.90;;;;;;4976327;28;20196;-78
2022/11/12 05:04:30;;;;;;;10.93;8.40;;;8.80;99.90;;;;;;4983844;28;20667;-79
2022/11/12 05:07:32;;;;;;;10.90;8.73;;;8.90;99.90;;;;;;4961041;29;20214;-79
2022/11/12 05:10:28;;;;;;;11.83;8.40;;;8.90;99.90;;;;;;4957081;29;20211;-79
2022/11/12 05:12:57;;;;;;;11.40;8.50;;;8.80;99.90;;;;;;4960514;28;20175;-79
2022/11/12 05:15:24;;;;;;;9.30;8.10;;;8.80;99.90;;;;;;4962483;28;20197;-80
2022/11/12 05:17:50;;;;;;;11.43;8.77;;;8.80;99.90;;;;;;4977715;28;20172;-84
2022/11/12 05:20:16;;;;;;;10.27;8.20;;;8.90;99.90;;;;;;4962570;29;20165;-80
2022/11/12 05:22:42;;;;;;;10.43;8.03;;;8.90;99.90;;;;;;4961124;29;20176;-79
2022/11/12 05:25:13;;;;;;;11.37;8.27;;;8.80;99.90;;;;;;4961892;29;20244;-78
2022/11/12 05:27:39;;;;;;;12.30;8.97;;;9.00;99.90;;;;;;4966841;29;20165;-80
2022/11/12 05:30:08;;;;;;;10.23;8.67;;;9.10;99.90;;;;;;4961652;29;20182;-79
2022/11/12 05:32:34;;;;;;;11.73;8.50;;;9.20;99.90;;;;;;4964758;29;20303;-78
2022/11/12 05:34:59;;;;;;;10.53;8.67;;;9.10;99.90;;;;;;4966030;29;20236;-78
2022/11/12 05:37:25;;;;;;;12.97;10.03;;;9.20;99.90;;;;;;4963493;29;20182;-77
2022/11/12 05:39:54;;;;;;;11.50;8.60;;;9.20;99.90;;;;;;4969270;28;20168;-78
2022/11/12 05:42:20;;;;;;;10.03;8.07;;;9.30;99.90;;;;;;4973963;29;20167;-79
2022/11/12 05:44:46;;;;;;;10.27;7.87;;;9.20;99.90;;;;;;4963016;29;20177;-79
2022/11/12 05:47:12;;;;;;;9.83;7.87;;;9.20;99.90;;;;;;4981419;28;20708;-78
2022/11/12 05:49:37;;;;;;;9.20;7.47;;;9.40;99.90;;;;;;4963655;29;20669;-77
2022/11/12 05:52:06;;;;;;;9.17;7.93;;;9.30;99.90;;;;;;4970312;29;20175;-80
2022/11/12 05:54:34;;;;;;;10.13;7.77;;;9.30;99.90;;;;;;4966710;28;20212;-77
2022/11/12 05:57:03;;;;;;;8.67;7.77;;;9.40;99.90;;;;;;4962118;29;20168;-80
2022/11/12 06:02:50;;;;;;;11.90;8.63;;;9.60;99.90;;;;;;4960493;28;20343;-78
2022/11/12 06:05:19;;;;;;;10.50;8.50;;;9.80;99.40;;;;;;4959506;29;20634;-79
2022/11/12 06:07:58;;;;;;;9.60;8.60;;;9.80;98.50;;;;;;4962009;29;20188;-78
2022/11/12 06:10:34;;;;;;;10.10;8.87;;;9.70;98.10;;;;;;4961436;29;20239;-81
2022/11/12 06:13:21;;;;;;;10.30;8.77;;;9.70;98.70;;;;;;4959621;29;20164;-79
2022/11/12 06:16:34;;;;;;;9.57;8.03;;;9.70;98.50;;;;;;4960554;28;20258;-81
2022/11/12 06:19:00;;;;;;;10.60;7.97;;;9.70;97.60;;;;;;4957697;28;20189;-83
2022/11/12 06:21:39;;;;;;;9.77;8.77;;;9.70;98.00;;;;;;4959284;29;20199;-79
2022/11/12 06:24:05;;;;;;;13.37;8.50;;;9.80;97.90;;;;;;4958668;29;20523;-79
2022/11/12 06:26:31;;;;;;;10.60;7.90;;;9.80;97.30;;;;;;4959380;29;20255;-79
2022/11/12 06:29:04;;;;;;;9.67;8.37;;;9.80;96.80;;;;;;4964129;29;20192;-81
2022/11/12 06:31:33;;;;;;;9.73;8.57;;;9.80;97.20;;;;;;4961088;29;20641;-81
2022/11/12 06:33:58;;;;;;;11.20;8.60;;;9.90;96.80;;;;;;4962663;29;20204;-78
2022/11/12 06:36:31;;;;;;;11.00;8.13;;;10.10;93.90;;;;;;4966548;29;20204;-78
2022/11/12 06:38:57;;;;;;;10.90;8.93;;;10.20;91.50;;;;;;4961331;28;20165;-79
2022/11/12 06:41:29;;;;;;;11.83;8.90;;;10.20;90.70;;;;;;4967114;29;20169;-80
2022/11/12 06:44:11;;;;;;;9.47;8.27;;;10.20;90.70;;;;;;4959803;29;20167;-79
2022/11/12 06:46:39;;;;;;;10.40;8.40;;;10.10;90.90;;;;;;4959595;29;20696;-80
2022/11/12 06:49:11;;;;;;;9.40;8.10;;;10.10;91.60;;;;;;4959044;29;20239;-82
2022/11/12 06:51:40;;;;;;;11.53;8.80;;;9.90;91.50;;;;;;4962043;28;20161;-79
2022/11/12 06:54:25;;;;;;;11.23;9.33;;;9.90;92.30;;;;;;4973800;28;20276;-80
2022/11/12 06:56:54;;;;;;;12.40;9.73;;;9.90;92.30;;;;;;4958757;29;20240;-78
2022/11/12 06:59:22;;;;;;;12.90;9.37;;;10.00;91.70;;;;;;4957965;29;20216;-79
2022/11/12 07:01:48;;;;;;;14.07;9.73;;;10.00;91.50;;;;;;4958221;29;20220;-81
2022/11/12 07:04:17;;;;;;;14.37;11.00;;;10.10;90.50;;;;;;4957012;28;20192;-77
2022/11/12 07:06:46;;;;;;;14.73;10.27;;;10.10;87.80;;;;;;4959914;29;20164;-80
2022/11/12 07:09:16;;;;;;;11.20;9.47;;;10.10;84.90;;;;;;4959517;28;20199;-80
2022/11/12 07:11:42;;;;;;;16.63;9.53;;;9.80;85.60;;;;;;4956737;29;20169;-79
2022/11/12 07:14:08;;;;;;;14.60;10.13;;;10.00;88.40;;;;;;4957111;29;20199;-80
2022/11/12 07:16:42;;;;;;;14.00;9.73;;;10.00;90.00;;;;;;4957545;29;20179;-78
2022/11/12 07:19:08;;;;;;;12.33;10.17;;;10.10;90.10;;;;;;4957158;29;20680;-79
2022/11/12 07:21:34;;;;;;;13.67;9.90;;;10.10;89.50;;;;;;4957185;29;20212;-78
2022/11/12 07:24:06;;;;;;;12.33;9.50;;;10.10;88.10;;;;;;4957395;29;20176;-80
2022/11/12 07:26:32;;;;;;;18.60;9.60;;;10.20;85.40;;;;;;4957406;28;20160;-79
2022/11/12 07:28:58;;;;;;;14.07;11.10;;;10.30;80.40;;;;;;4958037;29;20207;-81
2022/11/12 07:31:25;;;;;;;15.13;11.67;;;10.30;78.90;;;;;;4956577;29;20180;-80
2022/11/12 07:33:51;;;;;;;16.63;11.50;;;10.30;77.80;;;;;;4960881;29;20780;-79
2022/11/12 07:36:22;;;;;;;12.90;11.47;;;10.20;79.70;;;;;;4976224;28;20183;-81
2022/11/12 07:38:52;;;;;;;18.87;12.43;;;10.20;81.10;;;;;;4958292;29;20165;-80
2022/11/12 07:41:20;;;;;;;17.60;12.87;;;10.10;82.50;;;;;;4960543;28;20160;-78
2022/11/12 07:43:47;;;;;;;12.83;11.43;;;10.40;77.90;;;;;;4959962;28;20160;-78
2022/11/12 07:46:19;;;;;;;15.67;10.60;;;10.20;76.00;;;;;;4961735;28;20168;-79
2022/11/12 07:48:46;;;;;;;11.43;9.30;;;10.00;76.80;;;;;;4967244;28;20177;-78
2022/11/12 07:51:26;;;;;;;13.20;9.93;;;9.90;81.30;;;;;;4971427;28;20207;-78
2022/11/12 07:53:54;;;;;;;13.17;9.90;;;9.80;85.30;;;;;;4971731;28;20200;-78
2022/11/12 07:56:39;;;;;;;10.80;9.07;;;9.90;86.80;;;;;;4964687;28;20179;-78
2022/11/12 07:59:57;;;;;;;10.37;9.23;;;9.90;85.70;;;;;;4960464;29;20263;-78
2022/11/12 08:02:41;;;;;;;9.80;8.70;;;10.00;86.90;;;;;;4966457;28;20184;-79
2022/11/12 08:05:07;;;;;;;9.80;8.77;;;10.00;86.20;;;;;;4967147;28;20264;-78
2022/11/12 08:07:41;;;;;;;12.17;8.93;;;10.10;85.60;;;;;;4972821;29;20204;-80
2022/11/12 08:10:28;;;;;;;9.27;8.37;;;10.30;85.80;;;;;;4973649;29;20245;-78
2022/11/12 08:12:58;;;;;;;11.57;8.50;;;10.40;82.90;;;;;;4976067;29;20187;-78
2022/11/12 08:15:24;;;;;;;12.83;9.53;;;10.50;80.90;;;;;;4962899;29;20241;-80
2022/11/12 08:17:49;;;;;;;13.43;9.67;;;10.60;80.40;;;;;;4963694;29;20161;-79
2022/11/12 08:20:15;;;;;;;11.50;8.53;;;10.80;78.50;;;;;;4962192;29;20236;-79
2022/11/12 08:22:41;;;;;;;11.47;8.67;;;10.90;74.80;;;;;;4966808;29;20172;-79
2022/11/12 08:25:13;;;;;;;10.80;8.93;;;11.10;74.10;;;;;;4966452;29;20178;-78
2022/11/12 08:27:39;;;;;;;12.30;9.27;;;11.20;71.60;;;;;;4969834;28;20193;-78
2022/11/12 08:30:06;;;;;;;13.17;10.77;;;11.30;67.70;;;;;;4961090;29;20237;-79
2022/11/12 08:32:33;;;;;;;12.43;10.30;;;11.40;61.10;;;;;;4967071;28;20179;-79
2022/11/12 08:34:59;;;;;;;11.83;10.00;;;11.50;59.20;;;;;;4965583;28;20205;-84
2022/11/12 08:37:25;;;;;;;12.60;9.73;;;11.60;58.70;;;;;;4958919;29;20183;-79
2022/11/12 08:39:51;;;;;;;16.53;10.63;;;11.80;56.50;;;;;;4960319;29;20184;-81
2022/11/12 08:42:17;;;;;;;14.57;10.13;;;11.90;53.50;;;;;;4961317;28;20206;-82
2022/11/12 08:44:43;;;;;;;12.07;9.27;;;11.90;52.10;;;;;;4961667;28;20178;-80
2022/11/12 08:47:08;;;;;;;11.70;8.87;;;12.00;51.40;;;;;;4962642;29;20505;-81
2022/11/12 08:49:57;;;;;;;11.77;9.37;;;12.10;48.10;;;;;;4963892;28;20171;-81
2022/11/12 08:52:25;;;;;;;16.23;11.00;;;12.10;46.70;;;;;;4962507;29;20187;-79
2022/11/12 08:54:53;;;;;;;12.53;9.53;;;12.30;36.10;;;;;;4946998;29;20227;-79
2022/11/12 08:57:34;;;;;;;11.13;8.60;;;12.40;29.60;;;;;;4954429;29;20165;-80
2022/11/12 09:00:00;;;;;;;11.23;7.80;;;12.40;26.70;;;;;;4953847;29;20192;-78
2022/11/12 09:02:27;;;;;;;10.87;7.43;;;12.40;26.90;;;;;;4957300;29;20177;-80
2022/11/12 09:04:59;;;;;;;10.40;7.33;;;12.40;26.90;;;;;;4970163;28;20201;-78
2022/11/12 09:07:25;;;;;;;7.40;6.60;;;12.40;28.70;;;;;;4974043;29;20169;-77
2022/11/12 09:10:15;;;;;;;8.10;7.30;;;12.40;23.40;;;;;;4975411;29;20169;-78
2022/11/12 09:12:49;;;;;;;10.47;7.53;;;12.50;24.40;;;;;;4959757;29;20180;-79
2022/11/12 09:15:22;;;;;;;11.17;7.73;;;12.50;25.00;;;;;;4956828;29;20229;-79
2022/11/12 09:18:00;;;;;;;11.77;7.87;;;12.50;26.00;;;;;;4970450;29;20841;-79
2022/11/12 09:20:32;;;;;;;10.13;7.83;;;12.70;24.40;;;;;;4967911;29;20207;-79
2022/11/12 09:23:00;;;;;;;10.13;8.07;;;12.60;25.10;;;;;;4952342;29;20166;-83
2022/11/12 09:26:02;;;;;;;12.40;8.87;;;12.80;21.10;;;;;;4972979;29;20168;-79
2022/11/12 09:28:31;;;;;;;10.97;8.40;;;12.80;23.90;;;;;;4971734;29;20239;-79
2022/11/12 09:30:58;;;;;;;10.77;7.80;;;12.80;26.90;;;;;;4962611;29;20225;-80
2022/11/12 09:33:31;;;;;;;9.80;7.47;;;13.00;27.60;;;;;;4971170;29;20185;-78
2022/11/12 09:36:07;;;;;;;11.77;6.97;;;12.80;28.60;;;;;;4953384;29;20177;-80
2022/11/12 09:38:32;;;;;;;15.37;6.90;;;12.90;30.10;;;;;;4951374;29;20176;-78
2022/11/12 09:41:24;;;;;;;9.83;6.93;;;13.10;26.80;;;;;;4953280;29;20222;-79
2022/11/12 09:43:55;;;;;;;8.17;7.17;;;13.30;22.70;;;;;;4967081;29;20304;-79
2022/11/12 09:46:46;;;;;;;11.07;7.07;;;13.50;21.30;;;;;;4961599;29;20192;-80
2022/11/12 09:49:27;;;;;;;8.83;7.13;;;13.50;19.80;;;;;;4950164;29;20175;-79
2022/11/12 09:52:05;;;;;;;13.27;6.33;;;13.50;18.70;;;;;;4965959;29;20191;-78
2022/11/12 09:54:33;;;;;;;11.23;7.27;;;13.60;19.00;;;;;;4952465;29;20219;-79
2022/11/12 09:57:01;;;;;;;9.03;6.57;;;13.60;17.60;;;;;;4947535;29;20623;-80
2022/11/12 09:59:37;;;;;;;8.40;6.67;;;13.80;14.90;;;;;;4961871;29;20217;-79
2022/11/12 10:02:25;;;;;;;8.20;5.90;;;13.80;14.30;;;;;;4964100;29;20173;-78
2022/11/12 10:05:12;;;;;;;10.27;6.50;;;13.80;14.60;;;;;;4970961;28;20193;-80
2022/11/12 10:07:45;;;;;;;10.77;7.00;;;13.90;12.90;;;;;;4965025;28;20204;-81
2022/11/12 10:10:15;;;;;;;20.30;13.17;;;14.00;9.90;;;;;;4940911;29;20166;-81
2022/11/12 10:13:15;;;;;;;11.60;7.90;;;14.00;8.50;;;;;;4941036;29;20175;-80
2022/11/12 10:17:01;;;;;;;8.47;5.70;;;14.10;9.10;;;;;;4941582;28;20992;-80
2022/11/12 10:19:21;;;;;;;9.43;5.93;;;14.30;1.20;;;;;;4959149;28;20624;-81
2022/11/12 10:22:06;;;;;;;7.30;5.73;;;14.50;1.00;;;;;;4962489;29;20199;-80
2022/11/12 10:24:37;;;;;;;8.07;5.77;;;14.70;1.00;;;;;;4976231;28;20164;-85
2022/11/12 10:27:21;;;;;;;9.13;5.73;;;14.80;1.00;;;;;;4958858;28;20169;-83
2022/11/12 10:30:13;;;;;;;9.40;5.17;;;14.80;1.00;;;;;;4967742;28;20179;-79
2022/11/12 10:32:45;;;;;;;8.93;5.67;;;14.80;1.00;;;;;;4975141;28;20168;-79
2022/11/12 10:35:16;;;;;;;7.57;5.27;;;14.80;1.00;;;;;;4976281;28;20212;-80
2022/11/12 10:38:11;;;;;;;8.10;5.43;;;14.90;1.00;;;;;;4966894;29;20166;-81
2022/11/12 10:40:40;;;;;;;8.37;5.63;;;15.00;1.00;;;;;;4959908;28;20249;-81
2022/11/12 10:43:16;;;;;;;10.50;5.73;;;15.20;1.00;;;;;;4973172;28;20176;-82
2022/11/12 10:45:48;;;;;;;5.90;5.10;;;15.30;1.00;;;;;;4973016;28;20210;-80
2022/11/12 10:48:32;;;;;;;9.43;5.63;;;15.50;1.00;;;;;;4973769;28;20200;-93
2022/11/12 10:51:03;;;;;;;11.00;6.83;;;15.70;1.00;;;;;;4975132;28;20501;-96
2022/11/12 10:53:39;;;;;;;10.83;5.83;;;15.80;1.00;;;;;;4970826;28;20214;-79
2022/11/12 10:56:30;;;;;;;12.83;5.93;;;15.90;1.00;;;;;;4959291;28;20214;-79
2022/11/12 10:59:18;;;;;;;10.57;6.00;;;16.00;1.00;;;;;;4958608;29;20177;-81
2022/11/12 11:02:03;;;;;;;6.77;5.87;;;15.90;1.00;;;;;;4958129;28;20192;-81
2022/11/12 11:04:36;;;;;;;6.70;4.97;;;15.70;1.00;;;;;;4958277;28;20180;-79
2022/11/12 11:07:25;;;;;;;7.43;5.50;;;15.60;1.00;;;;;;4958993;28;20718;-80
2022/11/12 11:09:59;;;;;;;8.20;6.07;;;15.60;1.00;;;;;;4958728;29;20165;-80
2022/11/12 11:12:34;;;;;;;9.37;5.23;;;15.90;1.00;;;;;;4972598;28;20203;-79
2022/11/12 11:15:19;;;;;;;8.17;5.87;;;16.00;1.00;;;;;;4956504;28;20211;-80
2022/11/12 11:17:49;;;;;;;7.23;5.20;;;16.10;1.00;;;;;;4956722;28;20228;-80
2022/11/12 11:20:35;;;;;;;7.47;5.93;;;16.30;1.00;;;;;;4956046;28;20157;-80
2022/11/12 11:23:27;;;;;;;8.40;5.50;;;16.40;1.00;;;;;;4956643;28;20664;-82
2022/11/12 11:26:12;;;;;;;6.17;4.80;;;16.40;1.00;;;;;;4957928;28;20228;-82
2022/11/12 11:29:03;;;;;;;6.50;4.87;;;16.50;1.00;;;;;;4957482;28;20164;-80
2022/11/12 11:31:40;;;;;;;6.67;4.80;;;16.50;1.00;;;;;;4947380;29;20191;-80
2022/11/12 11:34:45;;;;;;;7.60;4.60;;;16.50;1.00;;;;;;4956906;29;20258;-81
2022/11/12 11:37:13;;;;;;;7.57;4.77;;;16.60;1.00;;;;;;4956135;28;20195;-81
2022/11/12 11:40:05;;;;;;;7.50;5.90;;;16.60;1.00;;;;;;4960794;29;20169;-84
2022/11/12 11:42:44;;;;;;;6.17;4.97;;;16.70;1.00;;;;;;4978863;28;20223;-90
2022/11/12 11:45:34;;;;;;;9.93;5.40;;;16.40;1.00;;;;;;4971093;29;20192;-88
2022/11/12 11:48:33;;;;;;;10.33;4.73;;;16.40;1.00;;;;;;4991483;28;20176;-83
2022/11/12 11:51:29;;;;;;;7.17;5.27;;;16.40;1.00;;;;;;4979162;28;20168;-79
2022/11/12 11:54:47;;;;;;;7.40;4.53;;;16.40;1.00;;;;;;4962485;28;20195;-78
2022/11/12 11:57:28;;;;;;;8.17;5.00;;;16.50;1.00;;;;;;4979491;28;20159;-78
2022/11/12 12:00:16;;;;;;;8.23;5.47;;;16.60;1.00;;;;;;4979155;28;20229;-78
2022/11/12 12:03:29;;;;;;;9.97;5.70;;;16.80;1.00;;;;;;4977708;28;20176;-78
2022/11/12 12:06:19;;;;;;;10.70;5.57;;;17.00;1.00;;;;;;4977155;28;20201;-79
2022/11/12 12:08:48;;;;;;;6.47;5.37;;;17.10;1.00;;;;;;4978409;28;20231;-82
2022/11/12 12:11:35;;;;;;;6.13;5.20;;;17.10;1.00;;;;;;4978043;28;20165;-82
2022/11/12 12:14:00;;;;;;;8.80;5.27;;;17.20;1.00;;;;;;4977941;28;20255;-81
2022/11/12 12:16:50;;;;;;;7.57;5.53;;;17.40;1.00;;;;;;4973456;28;20178;-90
2022/11/12 12:20:04;;;;;;;5.97;4.70;;;17.60;1.00;;;;;;4975370;29;20543;-87
2022/11/12 12:23:13;;;;;;;6.60;5.20;;;17.60;1.00;;;;;;4972167;29;20265;-80
2022/11/12 12:29:21;;;;;;;9.37;4.80;;;17.20;1.00;;;;;;4972604;29;20190;-83
2022/11/12 12:32:09;;;;;;;6.60;4.03;;;17.20;1.00;;;;;;4993365;28;20191;-80
2022/11/12 12:34:55;;;;;;;6.40;4.80;;;17.50;1.00;;;;;;4978266;28;20231;-80
2022/11/12 12:37:34;;;;;;;8.87;4.57;;;17.60;1.00;;;;;;4976337;29;20215;-78
2022/11/12 12:40:39;;;;;;;10.53;5.67;;;17.50;1.00;;;;;;4974744;29;20193;-79
2022/11/12 12:43:58;;;;;;;10.60;4.73;;;17.60;1.00;;;;;;4976071;29;20210;-84
2022/11/12 12:46:28;;;;;;;6.20;4.47;;;17.80;1.00;;;;;;4970420;29;20186;-90
2022/11/12 12:49:02;;;;;;;6.70;4.80;;;17.70;1.00;;;;;;4966480;28;20717;-88
2022/11/12 12:51:44;;;;;;;5.93;3.80;;;18.00;1.00;;;;;;4967557;28;20186;-90
2022/11/12 12:54:39;;;;;;;6.40;4.97;;;18.10;1.00;;;;;;4966782;28;20231;-93
2022/11/12 12:57:36;;;;;;;7.90;4.17;;;18.30;1.00;;;;;;4966898;28;20176;-88
2022/11/12 13:00:28;;;;;;;7.87;5.30;;;18.40;1.00;;;;;;4958034;28;20207;-91
2022/11/12 13:02:55;;;;;;;10.50;6.00;;;18.20;1.00;;;;;;4965494;28;20209;-88
2022/11/12 13:05:33;;;;;;;6.80;5.13;;;18.30;1.00;;;;;;4966663;28;20228;-88
2022/11/12 13:08:09;;;;;;;8.53;4.90;;;18.50;1.00;;;;;;4970983;28;20240;-91
2022/11/12 13:10:40;;;;;;;6.67;4.53;;;18.60;1.00;;;;;;4980156;28;20216;-81
2022/11/12 13:13:33;;;;;;;4.90;4.07;;;18.50;1.00;;;;;;4981766;28;20171;-83
2022/11/12 13:16:00;;;;;;;7.50;4.30;;;18.60;1.00;;;;;;4979911;28;20207;-90
2022/11/12 13:18:39;;;;;;;5.87;4.03;;;18.60;1.00;;;;;;4976172;28;20203;-88
2022/11/12 13:21:16;;;;;;;6.80;4.37;;;18.20;1.00;;;;;;4977712;29;20239;-90
2022/11/12 13:26:46;;;;;;;5.77;3.63;;;18.40;1.00;;;;;;4977219;28;20162;-84
2022/11/12 13:29:39;;;;;;;4.83;3.80;;;18.60;1.00;;;;;;4980786;28;20157;-91
2022/11/12 13:32:28;;;;;;;5.47;3.67;;;18.80;1.00;;;;;;4981977;28;20175;-85
2022/11/12 13:35:19;;;;;;;6.80;4.07;;;18.90;1.00;;;;;;4979560;28;20282;-92
2022/11/12 13:37:53;;;;;;;7.70;4.13;;;18.90;1.00;;;;;;4979315;28;20176;-85
2022/11/12 13:40:28;;;;;;;8.00;4.10;;;18.90;1.00;;;;;;4959959;29;20174;-81
2022/11/12 13:43:09;;;;;;;5.00;3.77;;;18.80;1.00;;;;;;4961679;29;20189;-83
2022/11/12 13:46:23;;;;;;;4.67;3.37;;;18.90;1.00;;;;;;4960398;28;20595;-80
2022/11/12 13:49:12;;;;;;;5.57;3.70;;;19.10;1.00;;;;;;4941656;28;20188;-80
2022/11/12 13:51:47;;;;;;;5.03;3.67;;;19.30;1.00;;;;;;4959204;28;20156;-80
2022/11/12 13:54:34;;;;;;;6.73;3.70;;;19.40;1.00;;;;;;4958951;28;20223;-80
2022/11/12 13:57:28;;;;;;;6.23;3.90;;;19.40;1.00;;;;;;4959579;28;20816;-83
2022/11/12 14:00:16;;;;;;;5.07;3.77;;;19.40;1.00;;;;;;4971579;28;20231;-78
2022/11/12 14:02:45;;;;;;;7.10;4.50;;;19.30;1.00;;;;;;4973638;28;20176;-79
2022/11/12 14:05:14;;;;;;;6.67;3.90;;;19.30;1.00;;;;;;4972965;28;20197;-77
2022/11/12 14:07:52;;;;;;;8.53;4.03;;;19.30;1.00;;;;;;4960440;28;20615;-80
2022/11/12 14:10:42;;;;;;;5.13;4.00;;;19.20;1.00;;;;;;4958499;29;20183;-80
2022/11/12 14:13:53;;;;;;;7.23;4.60;;;19.20;1.00;;;;;;4938495;29;20249;-79
2022/11/12 14:16:25;;;;;;;7.50;5.33;;;19.40;1.00;;;;;;4938828;29;20173;-82
2022/11/12 14:19:19;;;;;;;7.03;4.60;;;19.70;1.00;;;;;;4943858;29;20664;-80
2022/11/12 14:22:07;;;;;;;8.07;5.40;;;19.70;1.00;;;;;;4958412;29;20179;-79
2022/11/12 14:24:34;;;;;;;6.90;5.50;;;19.60;1.00;;;;;;4957098;29;20189;-80